createdAt,value
2017-05-10T00:01:09.278Z,0
2017-05-10T00:02:20.326Z,0
2017-05-10T00:03:31.336Z,0
2017-05-10T00:04:42.349Z,0
2017-05-10T00:05:53.561Z,0
2017-05-10T00:07:04.567Z,0
2017-05-10T00:08:15.581Z,0
2017-05-10T00:09:26.592Z,0
2017-05-10T00:10:37.797Z,0
2017-05-10T00:11:48.998Z,0
2017-05-10T00:13:00.060Z,0
2017-05-10T00:14:11.058Z,0
2017-05-10T00:15:22.057Z,0
2017-05-10T00:16:33.263Z,0
2017-05-10T00:17:44.469Z,0
2017-05-10T00:18:55.477Z,0
2017-05-10T00:20:06.690Z,0
2017-05-10T00:21:17.709Z,0
2017-05-10T00:22:28.763Z,0
2017-05-10T00:23:39.824Z,0
2017-05-10T00:24:50.823Z,0
2017-05-10T00:26:01.817Z,0
2017-05-10T00:27:12.804Z,0
2017-05-10T00:28:23.808Z,0
2017-05-10T00:29:34.849Z,0
2017-05-10T00:30:46.056Z,0
2017-05-10T00:31:57.071Z,0
2017-05-10T00:33:08.078Z,0
2017-05-10T00:34:19.339Z,0
2017-05-10T00:35:30.347Z,0
2017-05-10T00:36:41.357Z,0
2017-05-10T00:37:52.377Z,0
2017-05-10T00:39:03.380Z,0
2017-05-10T00:40:14.414Z,0
2017-05-10T00:41:25.414Z,0
2017-05-10T00:42:36.411Z,0
2017-05-10T00:43:47.418Z,0
2017-05-10T00:44:58.465Z,0
2017-05-10T00:46:09.474Z,0
2017-05-10T00:47:20.471Z,0
2017-05-10T00:48:31.675Z,0
2017-05-10T00:49:42.670Z,0
2017-05-10T00:50:53.675Z,0
2017-05-10T00:52:04.680Z,0
2017-05-10T00:53:15.698Z,0
2017-05-10T00:54:26.700Z,0
2017-05-10T00:55:37.708Z,0
2017-05-10T00:56:48.711Z,0
2017-05-10T00:57:59.966Z,0
2017-05-10T00:59:10.969Z,0
2017-05-10T01:00:22.022Z,0
2017-05-10T01:01:33.222Z,0
2017-05-10T01:02:44.222Z,0
2017-05-10T01:03:55.240Z,0
2017-05-10T01:05:06.251Z,0
2017-05-10T01:06:17.243Z,0
2017-05-10T01:07:28.247Z,0
2017-05-10T01:08:39.252Z,0
2017-05-10T01:09:50.257Z,0
2017-05-10T01:11:01.516Z,0
2017-05-10T01:12:12.521Z,0
2017-05-10T01:13:23.524Z,0
2017-05-10T01:14:34.730Z,0
2017-05-10T01:15:45.729Z,0
2017-05-10T01:16:56.734Z,0
2017-05-10T01:18:07.752Z,0
2017-05-10T01:19:18.756Z,0
2017-05-10T01:20:29.770Z,0
2017-05-10T01:21:40.819Z,0
2017-05-10T01:22:52.038Z,0
2017-05-10T01:24:03.242Z,0
2017-05-10T01:25:14.252Z,0
2017-05-10T01:26:25.259Z,0
2017-05-10T01:27:36.265Z,0
2017-05-10T01:28:47.268Z,0
2017-05-10T01:29:58.266Z,0
2017-05-10T01:31:09.472Z,0
2017-05-10T01:32:20.520Z,0
2017-05-10T01:33:31.747Z,0
2017-05-10T01:34:42.739Z,0
2017-05-10T01:35:53.754Z,0
2017-05-10T01:37:04.780Z,0
2017-05-10T01:38:15.988Z,0
2017-05-10T01:39:26.994Z,0
2017-05-10T01:40:37.997Z,0
2017-05-10T01:41:48.995Z,0
2017-05-10T01:43:00.104Z,0
2017-05-10T01:44:11.116Z,0
2017-05-10T01:45:22.318Z,0
2017-05-10T01:46:33.329Z,0
2017-05-10T01:47:44.549Z,0
2017-05-10T01:48:55.605Z,0
2017-05-10T01:50:06.812Z,0
2017-05-10T01:51:17.812Z,0
2017-05-10T01:52:28.811Z,0
2017-05-10T01:53:39.815Z,0
2017-05-10T01:54:50.811Z,0
2017-05-10T01:56:01.817Z,0
2017-05-10T01:57:12.834Z,0
2017-05-10T01:58:24.048Z,0
2017-05-10T01:59:35.273Z,0
2017-05-10T02:00:46.282Z,0
2017-05-10T02:01:57.278Z,0
2017-05-10T02:03:08.286Z,0
2017-05-10T02:04:19.299Z,0
2017-05-10T02:05:30.293Z,0
2017-05-10T02:06:41.494Z,0
2017-05-10T02:07:52.501Z,0
2017-05-10T02:09:03.712Z,0
2017-05-10T02:10:14.967Z,0
2017-05-10T02:11:26.167Z,0
2017-05-10T02:12:37.370Z,0
2017-05-10T02:13:48.575Z,0
2017-05-10T02:14:59.591Z,0
2017-05-10T02:16:10.599Z,0
2017-05-10T02:17:21.601Z,0
2017-05-10T02:18:32.611Z,0
2017-05-10T02:19:43.612Z,0
2017-05-10T02:20:54.682Z,0
2017-05-10T02:22:05.880Z,0
2017-05-10T02:23:16.883Z,0
2017-05-10T02:24:27.884Z,0
2017-05-10T02:25:38.883Z,0
2017-05-10T02:26:49.882Z,0
2017-05-10T02:28:00.885Z,0
2017-05-10T02:29:11.890Z,0
2017-05-10T02:30:22.894Z,0
2017-05-10T02:31:33.948Z,0
2017-05-10T02:32:44.951Z,0
2017-05-10T02:33:55.943Z,0
2017-05-10T02:35:06.934Z,0
2017-05-10T02:36:17.945Z,0
2017-05-10T02:37:29.145Z,0
2017-05-10T02:38:40.352Z,0
2017-05-10T02:39:51.364Z,0
2017-05-10T02:41:02.372Z,0
2017-05-10T02:42:13.427Z,0
2017-05-10T02:43:24.444Z,0
2017-05-10T02:44:35.452Z,0
2017-05-10T02:45:46.649Z,0
2017-05-10T02:46:57.858Z,0
2017-05-10T02:48:09.266Z,0
2017-05-10T02:49:20.268Z,0
2017-05-10T02:50:31.280Z,0
2017-05-10T02:51:42.286Z,0
2017-05-10T02:52:53.345Z,0
2017-05-10T02:54:04.562Z,0
2017-05-10T02:55:15.575Z,0
2017-05-10T02:56:26.573Z,0
2017-05-10T02:57:37.569Z,0
2017-05-10T02:58:48.778Z,0
2017-05-10T02:59:59.981Z,0
2017-05-10T03:01:10.976Z,0
2017-05-10T03:02:21.972Z,0
2017-05-10T03:03:32.979Z,0
2017-05-10T03:04:44.015Z,0
2017-05-10T03:05:55.222Z,0
2017-05-10T03:07:06.227Z,0
2017-05-10T03:08:17.252Z,0
2017-05-10T03:09:28.329Z,0
2017-05-10T03:10:39.343Z,0
2017-05-10T03:11:50.355Z,0
2017-05-10T03:13:01.744Z,0
2017-05-10T03:14:12.747Z,0
2017-05-10T03:15:23.744Z,0
2017-05-10T03:16:34.746Z,0
2017-05-10T03:17:45.771Z,0
2017-05-10T03:18:56.981Z,0
2017-05-10T03:20:08.235Z,0
2017-05-10T03:21:19.440Z,0
2017-05-10T03:22:30.445Z,0
2017-05-10T03:23:41.633Z,0
2017-05-10T03:24:52.640Z,0
2017-05-10T03:26:04.053Z,0
2017-05-10T03:27:15.065Z,0
2017-05-10T03:28:26.075Z,0
2017-05-10T03:29:37.271Z,0
2017-05-10T03:30:48.538Z,0
2017-05-10T03:31:59.542Z,0
2017-05-10T03:33:10.578Z,0
2017-05-10T03:34:21.583Z,0
2017-05-10T03:35:32.578Z,0
2017-05-10T03:36:43.771Z,0
2017-05-10T03:37:54.803Z,5
2017-05-10T03:39:05.820Z,5
2017-05-10T03:40:16.816Z,5
2017-05-10T03:41:28.054Z,5
2017-05-10T03:42:39.056Z,5
2017-05-10T03:43:50.068Z,5
2017-05-10T03:45:01.310Z,5
2017-05-10T03:46:12.318Z,10
2017-05-10T03:47:23.325Z,10
2017-05-10T03:48:34.333Z,10
2017-05-10T03:49:45.548Z,10
2017-05-10T03:50:56.788Z,10
2017-05-10T03:52:07.836Z,15
2017-05-10T03:53:19.043Z,15
2017-05-10T03:54:30.306Z,15
2017-05-10T03:55:41.325Z,15
2017-05-10T03:56:52.344Z,20
2017-05-10T03:58:03.393Z,20
2017-05-10T03:59:14.397Z,20
2017-05-10T04:00:25.600Z,20
2017-05-10T04:01:36.604Z,25
2017-05-10T04:02:47.802Z,25
2017-05-10T04:03:58.809Z,25
2017-05-10T04:05:10.024Z,30
2017-05-10T04:06:21.022Z,30
2017-05-10T04:07:32.016Z,30
2017-05-10T04:08:43.012Z,35
2017-05-10T04:09:54.031Z,35
2017-05-10T04:11:05.025Z,40
2017-05-10T04:12:16.040Z,40
2017-05-10T04:13:27.244Z,40
2017-05-10T04:14:38.296Z,45
2017-05-10T04:15:49.290Z,50
2017-05-10T04:17:00.294Z,50
2017-05-10T04:18:11.302Z,50
2017-05-10T04:19:22.354Z,55
2017-05-10T04:20:33.360Z,60
2017-05-10T04:21:44.395Z,65
2017-05-10T04:22:55.396Z,70
2017-05-10T04:24:06.412Z,80
2017-05-10T04:25:17.672Z,85
2017-05-10T04:26:28.686Z,85
2017-05-10T04:27:39.681Z,95
2017-05-10T04:28:51.081Z,105
2017-05-10T04:30:02.281Z,100
2017-05-10T04:31:13.473Z,105
2017-05-10T04:32:24.478Z,120
2017-05-10T04:33:35.479Z,130
2017-05-10T04:34:46.477Z,140
2017-05-10T04:35:57.518Z,145
2017-05-10T04:37:08.513Z,145
2017-05-10T04:38:19.509Z,130
2017-05-10T04:39:30.515Z,135
2017-05-10T04:40:41.519Z,130
2017-05-10T04:41:52.515Z,140
2017-05-10T04:43:03.556Z,145
2017-05-10T04:44:14.764Z,140
2017-05-10T04:45:25.959Z,135
2017-05-10T04:46:37.040Z,165
2017-05-10T04:47:48.046Z,190
2017-05-10T04:48:59.260Z,220
2017-05-10T04:50:10.262Z,240
2017-05-10T04:51:21.266Z,230
2017-05-10T04:52:32.264Z,230
2017-05-10T04:53:43.270Z,250
2017-05-10T04:54:54.272Z,220
2017-05-10T04:56:05.283Z,200
2017-05-10T04:57:16.543Z,190
2017-05-10T04:58:27.554Z,205
2017-05-10T04:59:38.569Z,220
2017-05-10T05:00:49.576Z,210
2017-05-10T05:02:00.573Z,205
2017-05-10T05:03:11.775Z,210
2017-05-10T05:04:22.782Z,215
2017-05-10T05:05:33.790Z,240
2017-05-10T05:06:44.786Z,275
2017-05-10T05:07:55.836Z,310
2017-05-10T05:09:07.050Z,455
2017-05-10T05:10:18.069Z,415
2017-05-10T05:11:29.073Z,480
2017-05-10T05:12:40.128Z,515
2017-05-10T05:13:51.137Z,530
2017-05-10T05:15:02.141Z,560
2017-05-10T05:16:13.119Z,575
2017-05-10T05:17:24.120Z,535
2017-05-10T05:18:35.129Z,445
2017-05-10T05:19:46.135Z,445
2017-05-10T05:20:57.146Z,370
2017-05-10T05:22:08.149Z,295
2017-05-10T05:23:19.161Z,305
2017-05-10T05:24:30.229Z,300
2017-05-10T05:25:41.219Z,290
2017-05-10T05:26:52.218Z,275
2017-05-10T05:28:03.233Z,265
2017-05-10T05:29:14.231Z,310
2017-05-10T05:30:25.430Z,320
2017-05-10T05:31:36.836Z,335
2017-05-10T05:32:47.835Z,355
2017-05-10T05:33:58.852Z,410
2017-05-10T05:35:09.915Z,440
2017-05-10T05:36:20.928Z,410
2017-05-10T05:37:32.136Z,440
2017-05-10T05:38:43.345Z,415
2017-05-10T05:39:54.543Z,380
2017-05-10T05:41:05.597Z,380
2017-05-10T05:42:16.609Z,375
2017-05-10T05:43:27.621Z,420
2017-05-10T05:44:38.627Z,405
2017-05-10T05:45:49.832Z,410
2017-05-10T05:47:00.854Z,390
2017-05-10T05:48:12.053Z,415
2017-05-10T05:49:23.050Z,560
2017-05-10T05:50:34.041Z,555
2017-05-10T05:51:45.030Z,605
2017-05-10T05:52:56.032Z,605
2017-05-10T05:54:07.041Z,660
2017-05-10T05:55:18.301Z,560
2017-05-10T05:56:29.299Z,460
2017-05-10T05:57:40.512Z,525
2017-05-10T05:58:51.718Z,1075
2017-05-10T06:00:02.938Z,1015
2017-05-10T06:01:13.950Z,1130
2017-05-10T06:02:24.950Z,1075
2017-05-10T06:03:36.170Z,990
2017-05-10T06:04:47.184Z,1415
2017-05-10T06:05:58.239Z,1305
2017-05-10T06:07:09.245Z,1285
2017-05-10T06:08:20.454Z,1265
2017-05-10T06:09:31.666Z,1330
2017-05-10T06:10:42.672Z,1350
2017-05-10T06:11:53.682Z,1365
2017-05-10T06:13:04.697Z,1270
2017-05-10T06:14:15.706Z,1230
2017-05-10T06:15:26.754Z,1165
2017-05-10T06:16:37.767Z,1385
2017-05-10T06:17:48.795Z,1525
2017-05-10T06:18:59.824Z,1550
2017-05-10T06:20:10.841Z,1590
2017-05-10T06:21:22.259Z,1620
2017-05-10T06:22:33.520Z,1460
2017-05-10T06:23:44.525Z,1325
2017-05-10T06:24:55.536Z,1215
2017-05-10T06:26:06.740Z,1385
2017-05-10T06:27:17.745Z,1480
2017-05-10T06:28:28.754Z,1645
2017-05-10T06:29:39.975Z,1680
2017-05-10T06:30:51.201Z,1625
2017-05-10T06:32:02.218Z,1555
2017-05-10T06:33:13.282Z,1600
2017-05-10T06:34:24.510Z,1715
2017-05-10T06:35:35.529Z,1460
2017-05-10T06:36:46.742Z,1690
2017-05-10T06:37:57.768Z,1660
2017-05-10T06:39:09.001Z,1730
2017-05-10T06:40:20.012Z,1800
2017-05-10T06:41:31.021Z,1815
2017-05-10T06:42:42.035Z,1840
2017-05-10T06:43:53.314Z,1885
2017-05-10T06:45:04.332Z,1805
2017-05-10T06:46:15.347Z,1875
2017-05-10T06:47:26.386Z,1880
2017-05-10T06:48:37.620Z,1885
2017-05-10T06:49:48.622Z,1930
2017-05-10T06:50:59.644Z,1920
2017-05-10T06:52:10.857Z,1900
2017-05-10T06:53:21.867Z,1825
2017-05-10T06:54:32.940Z,1785
2017-05-10T06:55:43.956Z,1825
2017-05-10T06:56:55.191Z,1895
2017-05-10T06:58:06.411Z,1925
2017-05-10T06:59:17.435Z,1960
2017-05-10T07:00:28.453Z,1860
2017-05-10T07:01:39.468Z,1980
2017-05-10T07:02:50.496Z,2010
2017-05-10T07:04:01.723Z,2010
2017-05-10T07:05:12.799Z,2065
2017-05-10T07:06:23.836Z,2135
2017-05-10T07:07:35.064Z,1825
2017-05-10T07:08:46.091Z,1995
2017-05-10T07:09:57.120Z,2155
2017-05-10T07:11:08.142Z,2055
2017-05-10T07:12:19.169Z,1945
2017-05-10T07:13:30.198Z,2080
2017-05-10T07:14:41.217Z,2025
2017-05-10T07:15:52.253Z,1805
2017-05-10T07:17:03.280Z,1870
2017-05-10T07:18:14.294Z,2205
2017-05-10T07:19:25.726Z,2155
2017-05-10T07:20:36.787Z,2280
2017-05-10T07:21:47.998Z,2190
2017-05-10T07:22:59.029Z,2200
2017-05-10T07:24:10.263Z,2235
2017-05-10T07:25:21.681Z,2330
2017-05-10T07:26:32.746Z,2300
2017-05-10T07:27:43.762Z,2245
2017-05-10T07:28:54.784Z,2240
2017-05-10T07:30:05.809Z,2340
2017-05-10T07:31:17.078Z,2415
2017-05-10T07:32:28.091Z,2430
2017-05-10T07:33:39.111Z,2405
2017-05-10T07:34:50.181Z,2460
2017-05-10T07:36:01.216Z,2335
2017-05-10T07:37:12.497Z,2350
2017-05-10T07:38:23.526Z,2290
2017-05-10T07:39:34.548Z,2340
2017-05-10T07:40:45.571Z,2335
2017-05-10T07:41:56.576Z,1995
2017-05-10T07:43:07.600Z,2145
2017-05-10T07:44:18.614Z,2155
2017-05-10T07:45:29.628Z,2240
2017-05-10T07:46:40.650Z,2505
2017-05-10T07:47:51.742Z,2460
2017-05-10T07:49:02.778Z,2475
2017-05-10T07:50:13.989Z,2335
2017-05-10T07:51:25.424Z,2325
2017-05-10T07:52:36.446Z,2255
2017-05-10T07:53:47.655Z,2170
2017-05-10T07:54:59.078Z,2005
2017-05-10T07:56:10.104Z,2060
2017-05-10T07:57:21.121Z,2195
2017-05-10T07:58:32.396Z,2505
2017-05-10T07:59:43.423Z,2310
2017-05-10T08:00:54.443Z,2460
2017-05-10T08:02:05.502Z,2505
2017-05-10T08:03:16.729Z,2525
2017-05-10T08:04:27.754Z,2535
2017-05-10T08:05:38.775Z,2770
2017-05-10T08:06:49.799Z,2435
2017-05-10T08:08:00.832Z,2565
2017-05-10T08:09:11.904Z,2615
2017-05-10T08:10:22.923Z,2585
2017-05-10T08:11:34.148Z,2795
2017-05-10T08:12:45.374Z,2585
2017-05-10T08:13:56.401Z,2570
2017-05-10T08:15:07.423Z,2565
2017-05-10T08:16:18.443Z,2605
2017-05-10T08:17:29.476Z,2545
2017-05-10T08:18:40.697Z,2455
2017-05-10T08:19:51.727Z,2750
2017-05-10T08:21:02.752Z,2795
2017-05-10T08:22:13.983Z,2800
2017-05-10T08:23:25.019Z,2635
2017-05-10T08:24:36.046Z,2675
2017-05-10T08:25:47.285Z,2620
2017-05-10T08:26:58.310Z,2640
2017-05-10T08:28:09.533Z,2710
2017-05-10T08:29:20.765Z,2635
2017-05-10T08:30:31.834Z,2315
2017-05-10T08:31:42.854Z,2525
2017-05-10T08:32:53.879Z,1000
2017-05-10T08:34:04.912Z,900
2017-05-10T08:35:16.328Z,880
2017-05-10T08:36:27.609Z,895
2017-05-10T08:37:38.649Z,950
2017-05-10T08:38:49.879Z,1010
2017-05-10T08:40:01.114Z,985
2017-05-10T08:41:12.388Z,1075
2017-05-10T08:42:23.448Z,1025
2017-05-10T08:43:34.482Z,1230
2017-05-10T08:44:45.510Z,2275
2017-05-10T08:45:56.730Z,2555
2017-05-10T08:47:07.755Z,2560
2017-05-10T08:48:18.773Z,2605
2017-05-10T08:49:29.807Z,2780
2017-05-10T08:50:40.841Z,2590
2017-05-10T08:51:52.109Z,2610
2017-05-10T08:53:03.340Z,2660
2017-05-10T08:54:14.366Z,2675
2017-05-10T08:55:25.380Z,2750
2017-05-10T08:56:36.410Z,2680
2017-05-10T08:57:47.640Z,2765
2017-05-10T08:58:58.654Z,2595
2017-05-10T09:00:09.673Z,2635
2017-05-10T09:01:20.707Z,2785
2017-05-10T09:02:31.989Z,2830
2017-05-10T09:03:43.019Z,975
2017-05-10T09:04:54.049Z,2720
2017-05-10T09:06:05.073Z,970
2017-05-10T09:07:16.096Z,835
2017-05-10T09:08:27.126Z,980
2017-05-10T09:09:38.152Z,770
2017-05-10T09:10:49.172Z,865
2017-05-10T09:12:00.191Z,965
2017-05-10T09:13:11.463Z,970
2017-05-10T09:14:22.688Z,980
2017-05-10T09:15:33.720Z,2215
2017-05-10T09:16:44.750Z,1000
2017-05-10T09:17:55.763Z,2075
2017-05-10T09:19:06.835Z,1795
2017-05-10T09:20:17.849Z,1040
2017-05-10T09:21:28.877Z,2645
2017-05-10T09:22:39.894Z,910
2017-05-10T09:23:51.121Z,880
2017-05-10T09:25:02.345Z,1410
2017-05-10T09:26:13.361Z,730
2017-05-10T09:27:24.398Z,690
2017-05-10T09:28:35.433Z,680
2017-05-10T09:29:46.448Z,710
2017-05-10T09:30:57.473Z,1920
2017-05-10T09:32:08.699Z,2515
2017-05-10T09:33:19.710Z,1240
2017-05-10T09:34:30.786Z,2745
2017-05-10T09:35:42.012Z,1555
2017-05-10T09:36:53.020Z,1805
2017-05-10T09:38:04.229Z,1855
2017-05-10T09:39:15.251Z,2625
2017-05-10T09:40:26.468Z,2645
2017-05-10T09:41:37.494Z,2715
2017-05-10T09:42:48.530Z,1890
2017-05-10T09:43:59.543Z,785
2017-05-10T09:45:10.604Z,705
2017-05-10T09:46:21.622Z,670
2017-05-10T09:47:32.649Z,635
2017-05-10T09:48:43.865Z,630
2017-05-10T09:49:54.894Z,620
2017-05-10T09:51:05.953Z,630
2017-05-10T09:52:17.163Z,630
2017-05-10T09:53:28.174Z,610
2017-05-10T09:54:39.393Z,595
2017-05-10T09:55:50.422Z,630
2017-05-10T09:57:01.441Z,695
2017-05-10T09:58:12.474Z,795
2017-05-10T09:59:23.491Z,670
2017-05-10T10:00:34.562Z,755
2017-05-10T10:01:45.986Z,2305
2017-05-10T10:02:57.009Z,1725
2017-05-10T10:04:08.023Z,810
2017-05-10T10:05:19.049Z,815
2017-05-10T10:06:30.268Z,1080
2017-05-10T10:07:41.281Z,1340
2017-05-10T10:08:52.295Z,1740
2017-05-10T10:10:03.307Z,2210
2017-05-10T10:11:14.582Z,2305
2017-05-10T10:12:25.608Z,1865
2017-05-10T10:13:36.636Z,1025
2017-05-10T10:14:47.691Z,2325
2017-05-10T10:15:58.908Z,1080
2017-05-10T10:17:09.939Z,960
2017-05-10T10:18:20.970Z,2520
2017-05-10T10:19:31.981Z,1105
2017-05-10T10:20:43.199Z,750
2017-05-10T10:21:54.478Z,685
2017-05-10T10:23:05.701Z,655
2017-05-10T10:24:16.725Z,630
2017-05-10T10:25:27.739Z,605
2017-05-10T10:26:38.751Z,595
2017-05-10T10:27:49.770Z,605
2017-05-10T10:29:00.774Z,610
2017-05-10T10:30:11.981Z,655
2017-05-10T10:31:23.201Z,1915
2017-05-10T10:32:34.219Z,2305
2017-05-10T10:33:45.233Z,2315
2017-05-10T10:34:56.251Z,805
2017-05-10T10:36:07.264Z,720
2017-05-10T10:37:18.289Z,760
2017-05-10T10:38:29.360Z,780
2017-05-10T10:39:40.389Z,720
2017-05-10T10:40:51.413Z,680
2017-05-10T10:42:02.436Z,675
2017-05-10T10:43:13.452Z,710
2017-05-10T10:44:24.670Z,780
2017-05-10T10:45:35.683Z,915
2017-05-10T10:46:46.689Z,1280
2017-05-10T10:47:57.712Z,920
2017-05-10T10:49:08.781Z,745
2017-05-10T10:50:19.793Z,1080
2017-05-10T10:51:30.820Z,920
2017-05-10T10:52:42.043Z,1085
2017-05-10T10:53:53.259Z,1465
2017-05-10T10:55:04.292Z,1310
2017-05-10T10:56:15.321Z,1400
2017-05-10T10:57:26.341Z,1490
2017-05-10T10:58:37.363Z,1565
2017-05-10T10:59:48.443Z,1635
2017-05-10T11:00:59.468Z,1685
2017-05-10T11:02:10.485Z,1435
2017-05-10T11:03:21.498Z,1295
2017-05-10T11:04:32.522Z,1710
2017-05-10T11:05:43.545Z,1755
2017-05-10T11:06:54.565Z,1795
2017-05-10T11:08:05.578Z,1795
2017-05-10T11:09:16.596Z,620
2017-05-10T11:10:27.624Z,680
2017-05-10T11:11:38.642Z,720
2017-05-10T11:12:49.866Z,850
2017-05-10T11:14:01.083Z,645
2017-05-10T11:15:12.156Z,580
2017-05-10T11:16:23.175Z,540
2017-05-10T11:17:34.197Z,540
2017-05-10T11:18:45.215Z,560
2017-05-10T11:19:56.223Z,665
2017-05-10T11:21:07.512Z,1730
2017-05-10T11:22:18.531Z,1530
2017-05-10T11:23:29.546Z,880
2017-05-10T11:24:40.765Z,1720
2017-05-10T11:25:52.391Z,855
2017-05-10T11:27:03.468Z,1100
2017-05-10T11:28:14.485Z,665
2017-05-10T11:29:25.492Z,640
2017-05-10T11:30:36.510Z,595
2017-05-10T11:31:47.741Z,570
2017-05-10T11:32:58.769Z,560
2017-05-10T11:34:09.991Z,570
2017-05-10T11:35:21.017Z,595
2017-05-10T11:36:32.235Z,615
2017-05-10T11:37:43.296Z,660
2017-05-10T11:38:54.311Z,675
2017-05-10T11:40:05.535Z,705
2017-05-10T11:41:16.545Z,940
2017-05-10T11:42:27.560Z,875
2017-05-10T11:43:38.624Z,1045
2017-05-10T11:44:49.663Z,1515
2017-05-10T11:46:00.687Z,1450
2017-05-10T11:47:11.697Z,1235
2017-05-10T11:48:22.775Z,885
2017-05-10T11:49:33.792Z,1180
2017-05-10T11:50:45.025Z,1145
2017-05-10T11:51:56.066Z,1205
2017-05-10T11:53:07.091Z,595
2017-05-10T11:54:18.146Z,565
2017-05-10T11:55:29.171Z,525
2017-05-10T11:56:40.182Z,820
2017-05-10T11:57:51.208Z,1165
2017-05-10T11:59:02.263Z,1135
2017-05-10T12:00:13.308Z,1120
2017-05-10T12:01:24.334Z,1080
2017-05-10T12:02:35.353Z,1050
2017-05-10T12:03:46.389Z,1030
2017-05-10T12:04:57.408Z,510
2017-05-10T12:06:08.427Z,500
2017-05-10T12:07:19.458Z,540
2017-05-10T12:08:30.484Z,535
2017-05-10T12:09:41.547Z,510
2017-05-10T12:10:52.562Z,485
2017-05-10T12:12:03.774Z,475
2017-05-10T12:13:15.189Z,475
2017-05-10T12:14:26.207Z,465
2017-05-10T12:15:37.215Z,455
2017-05-10T12:16:48.233Z,450
2017-05-10T12:17:59.461Z,520
2017-05-10T12:19:10.483Z,570
2017-05-10T12:20:21.693Z,885
2017-05-10T12:21:32.716Z,925
2017-05-10T12:22:43.732Z,555
2017-05-10T12:23:54.748Z,740
2017-05-10T12:25:05.819Z,940
2017-05-10T12:26:17.053Z,925
2017-05-10T12:27:28.071Z,950
2017-05-10T12:28:39.296Z,950
2017-05-10T12:29:50.522Z,930
2017-05-10T12:31:01.807Z,945
2017-05-10T12:32:12.821Z,925
2017-05-10T12:33:24.065Z,925
2017-05-10T12:34:35.086Z,890
2017-05-10T12:35:46.105Z,880
2017-05-10T12:36:57.115Z,875
2017-05-10T12:38:08.134Z,870
2017-05-10T12:39:19.347Z,820
2017-05-10T12:40:30.371Z,805
2017-05-10T12:41:41.407Z,805
2017-05-10T12:42:52.425Z,795
2017-05-10T12:44:03.448Z,775
2017-05-10T12:45:14.463Z,755
2017-05-10T12:46:25.498Z,735
2017-05-10T12:47:36.570Z,720
2017-05-10T12:48:47.628Z,695
2017-05-10T12:49:58.659Z,670
2017-05-10T12:51:09.684Z,650
2017-05-10T12:52:20.707Z,620
2017-05-10T12:53:31.734Z,615
2017-05-10T12:54:42.753Z,610
2017-05-10T12:55:53.781Z,610
2017-05-10T12:57:04.799Z,600
2017-05-10T12:58:15.897Z,565
2017-05-10T12:59:26.932Z,550
2017-05-10T13:00:37.950Z,520
2017-05-10T13:01:49.167Z,505
2017-05-10T13:03:00.172Z,485
2017-05-10T13:04:11.184Z,480
2017-05-10T13:05:22.191Z,470
2017-05-10T13:06:33.217Z,470
2017-05-10T13:07:44.272Z,400
2017-05-10T13:08:55.338Z,300
2017-05-10T13:10:06.357Z,455
2017-05-10T13:11:17.373Z,385
2017-05-10T13:12:28.401Z,360
2017-05-10T13:13:39.423Z,335
2017-05-10T13:14:50.443Z,460
2017-05-10T13:16:01.455Z,465
2017-05-10T13:17:12.478Z,465
2017-05-10T13:18:23.488Z,455
2017-05-10T13:19:34.759Z,430
2017-05-10T13:20:45.794Z,435
2017-05-10T13:21:57.010Z,435
2017-05-10T13:23:08.227Z,430
2017-05-10T13:24:19.439Z,430
2017-05-10T13:25:30.466Z,435
2017-05-10T13:26:41.479Z,430
2017-05-10T13:27:52.504Z,425
2017-05-10T13:29:03.506Z,425
2017-05-10T13:30:14.520Z,430
2017-05-10T13:31:25.536Z,430
2017-05-10T13:32:36.555Z,410
2017-05-10T13:33:47.568Z,420
2017-05-10T13:34:58.779Z,420
2017-05-10T13:36:09.790Z,415
2017-05-10T13:37:20.797Z,410
2017-05-10T13:38:32.015Z,410
2017-05-10T13:39:43.043Z,410
2017-05-10T13:40:54.258Z,415
2017-05-10T13:42:05.271Z,420
2017-05-10T13:43:16.292Z,420
2017-05-10T13:44:27.305Z,415
2017-05-10T13:45:38.319Z,415
2017-05-10T13:46:49.371Z,420
2017-05-10T13:48:00.390Z,420
2017-05-10T13:49:11.401Z,425
2017-05-10T13:50:22.412Z,430
2017-05-10T13:51:33.430Z,445
2017-05-10T13:52:44.427Z,515
2017-05-10T13:53:55.443Z,580
2017-05-10T13:55:06.458Z,560
2017-05-10T13:56:17.476Z,545
2017-05-10T13:57:28.536Z,530
2017-05-10T13:58:39.555Z,535
2017-05-10T13:59:50.570Z,540
2017-05-10T14:01:01.775Z,555
2017-05-10T14:02:12.786Z,590
2017-05-10T14:03:24.000Z,545
2017-05-10T14:04:35.018Z,530
2017-05-10T14:05:46.025Z,535
2017-05-10T14:06:57.033Z,520
2017-05-10T14:08:08.099Z,515
2017-05-10T14:09:19.118Z,500
2017-05-10T14:10:30.143Z,500
2017-05-10T14:11:41.185Z,495
2017-05-10T14:12:52.195Z,495
2017-05-10T14:14:03.211Z,490
2017-05-10T14:15:14.231Z,485
2017-05-10T14:16:25.661Z,490
2017-05-10T14:17:36.869Z,485
2017-05-10T14:18:47.937Z,470
2017-05-10T14:19:58.953Z,490
2017-05-10T14:21:09.969Z,480
2017-05-10T14:22:20.977Z,465
2017-05-10T14:23:31.994Z,460
2017-05-10T14:24:43.011Z,440
2017-05-10T14:25:54.012Z,390
2017-05-10T14:27:05.025Z,340
2017-05-10T14:28:16.065Z,315
2017-05-10T14:29:27.121Z,305
2017-05-10T14:30:38.141Z,300
2017-05-10T14:31:49.144Z,295
2017-05-10T14:33:00.154Z,295
2017-05-10T14:34:11.164Z,290
2017-05-10T14:35:22.435Z,290
2017-05-10T14:36:33.444Z,290
2017-05-10T14:37:44.650Z,285
2017-05-10T14:38:55.664Z,285
2017-05-10T14:40:06.671Z,295
2017-05-10T14:41:17.700Z,300
2017-05-10T14:42:28.734Z,290
2017-05-10T14:43:39.748Z,280
2017-05-10T14:44:50.967Z,275
2017-05-10T14:46:01.982Z,265
2017-05-10T14:47:13.048Z,260
2017-05-10T14:48:24.055Z,260
2017-05-10T14:49:35.066Z,260
2017-05-10T14:50:46.084Z,255
2017-05-10T14:51:57.163Z,255
2017-05-10T14:53:08.169Z,250
2017-05-10T14:54:19.391Z,250
2017-05-10T14:55:30.413Z,255
2017-05-10T14:56:41.413Z,255
2017-05-10T14:57:52.641Z,255
2017-05-10T14:59:03.651Z,250
2017-05-10T15:00:14.859Z,250
2017-05-10T15:01:25.871Z,240
2017-05-10T15:02:36.931Z,245
2017-05-10T15:03:48.155Z,240
2017-05-10T15:04:59.169Z,235
2017-05-10T15:06:10.176Z,235
2017-05-10T15:07:21.189Z,235
2017-05-10T15:08:32.209Z,235
2017-05-10T15:09:43.229Z,235
2017-05-10T15:10:54.242Z,235
2017-05-10T15:12:05.454Z,230
2017-05-10T15:13:16.511Z,230
2017-05-10T15:14:27.717Z,230
2017-05-10T15:15:38.931Z,220
2017-05-10T15:16:50.147Z,220
2017-05-10T15:18:01.161Z,225
2017-05-10T15:19:12.178Z,225
2017-05-10T15:20:23.188Z,210
2017-05-10T15:21:34.188Z,215
2017-05-10T15:22:45.197Z,215
2017-05-10T15:23:56.257Z,215
2017-05-10T15:25:07.479Z,215
2017-05-10T15:26:18.495Z,205
2017-05-10T15:27:29.713Z,220
2017-05-10T15:28:40.729Z,215
2017-05-10T15:29:51.735Z,220
2017-05-10T15:31:02.755Z,215
2017-05-10T15:32:13.773Z,215
2017-05-10T15:33:24.777Z,215
2017-05-10T15:34:35.835Z,220
2017-05-10T15:35:46.843Z,215
2017-05-10T15:36:58.074Z,215
2017-05-10T15:38:09.086Z,220
2017-05-10T15:39:20.093Z,215
2017-05-10T15:40:31.310Z,220
2017-05-10T15:41:42.333Z,215
2017-05-10T15:42:53.359Z,220
2017-05-10T15:44:04.361Z,220
2017-05-10T15:45:15.374Z,220
2017-05-10T15:46:26.781Z,220
2017-05-10T15:47:37.799Z,215
2017-05-10T15:48:48.807Z,215
2017-05-10T15:49:59.824Z,215
2017-05-10T15:51:10.827Z,215
2017-05-10T15:52:21.848Z,215
2017-05-10T15:53:33.049Z,215
2017-05-10T15:54:44.303Z,215
2017-05-10T15:55:55.369Z,220
2017-05-10T15:57:06.380Z,215
2017-05-10T15:58:17.364Z,215
2017-05-10T15:59:28.365Z,220
2017-05-10T16:00:39.370Z,225
2017-05-10T16:01:50.374Z,220
2017-05-10T16:03:01.380Z,220
2017-05-10T16:04:12.584Z,220
2017-05-10T16:05:23.581Z,215
2017-05-10T16:06:34.626Z,215
2017-05-10T16:07:45.630Z,215
2017-05-10T16:08:56.630Z,210
2017-05-10T16:10:07.648Z,210
2017-05-10T16:11:18.666Z,205
2017-05-10T16:12:29.687Z,200
2017-05-10T16:13:40.691Z,200
2017-05-10T16:14:51.701Z,195
2017-05-10T16:16:02.718Z,195
2017-05-10T16:17:13.782Z,190
2017-05-10T16:18:24.804Z,190
2017-05-10T16:19:35.805Z,185
2017-05-10T16:20:46.818Z,185
2017-05-10T16:21:57.829Z,180
2017-05-10T16:23:09.054Z,175
2017-05-10T16:24:20.068Z,170
2017-05-10T16:25:31.116Z,165
2017-05-10T16:26:42.127Z,165